Time;durP1;ratioP1;P1;durP2;ratioP2;P2;SDS_P1;SDS_P2;PMS_P1;PMS_P2;Temp;Humidity;BMP_temperature;BMP_pressure;BME280_temperature;BME280_humidity;BME280_pressure;Samples;Min_cycle;Max_cycle;Signal;HPM_P1;HPM_P2
2021/12/15 00:01:32;;;;;;;37.95;16.13;;;8.70;99.90;;;;;;5011115;28;20030;-45
2021/12/15 00:03:58;;;;;;;36.70;15.98;;;8.70;99.90;;;;;;5009251;28;20033;-46
2021/12/15 00:06:24;;;;;;;32.35;14.38;;;8.70;99.90;;;;;;5010895;28;20040;-47
2021/12/15 00:08:53;;;;;;;37.70;16.52;;;8.70;99.90;;;;;;5010942;28;20030;-48
2021/12/15 00:11:20;;;;;;;46.33;17.75;;;8.70;99.90;;;;;;5010732;28;20639;-47
2021/12/15 00:13:47;;;;;;;41.15;16.88;;;8.70;99.90;;;;;;5010687;28;20033;-46
2021/12/15 00:16:16;;;;;;;35.78;15.63;;;8.70;99.90;;;;;;5011090;28;20025;-48
2021/12/15 00:18:44;;;;;;;31.83;16.55;;;8.70;99.90;;;;;;5009168;28;20046;-50
2021/12/15 00:21:12;;;;;;;40.50;18.10;;;8.70;99.90;;;;;;5010943;28;20188;-46
2021/12/15 00:23:39;;;;;;;42.40;17.70;;;8.70;99.90;;;;;;5010513;28;20022;-47
2021/12/15 00:26:05;;;;;;;43.05;18.70;;;8.70;99.90;;;;;;5010597;28;20579;-47
2021/12/15 00:28:31;;;;;;;38.15;17.02;;;8.70;99.90;;;;;;5010668;28;20054;-48
2021/12/15 00:30:56;;;;;;;36.97;16.92;;;8.60;99.90;;;;;;5003671;28;20033;-52
2021/12/15 00:33:22;;;;;;;38.50;16.48;;;8.70;99.90;;;;;;5009841;28;20037;-45
2021/12/15 00:35:48;;;;;;;34.40;15.98;;;8.70;99.90;;;;;;5014850;28;20025;-45
2021/12/15 00:38:14;;;;;;;40.50;18.17;;;8.70;99.90;;;;;;5014580;28;20026;-46
2021/12/15 00:40:39;;;;;;;34.80;15.48;;;8.70;99.90;;;;;;5014450;28;20105;-49
2021/12/15 00:43:05;;;;;;;39.88;17.67;;;8.70;99.90;;;;;;5014121;28;20144;-47
2021/12/15 00:45:31;;;;;;;31.83;15.73;;;8.70;99.90;;;;;;5014632;28;20571;-48
2021/12/15 00:47:58;;;;;;;36.30;16.38;;;8.70;99.90;;;;;;5013323;28;20021;-49
2021/12/15 00:50:29;;;;;;;38.65;17.38;;;8.60;99.90;;;;;;5014181;28;20129;-49
2021/12/15 00:52:55;;;;;;;40.45;16.55;;;8.70;99.90;;;;;;5014301;28;20130;-44
2021/12/15 00:55:24;;;;;;;35.80;17.77;;;8.70;99.90;;;;;;5014330;28;20458;-49
2021/12/15 00:57:50;;;;;;;40.72;17.73;;;8.70;99.90;;;;;;5014208;28;20030;-47
2021/12/15 01:00:22;;;;;;;46.45;19.98;;;8.70;99.90;;;;;;5014204;28;20600;-48
2021/12/15 01:02:50;;;;;;;44.92;20.42;;;8.70;99.90;;;;;;5013909;28;20408;-49
2021/12/15 01:05:18;;;;;;;36.55;17.45;;;8.70;99.90;;;;;;5013046;28;20026;-46
2021/12/15 01:07:44;;;;;;;36.25;17.45;;;8.70;99.90;;;;;;5013908;28;20029;-50
2021/12/15 01:10:14;;;;;;;44.70;19.98;;;8.70;99.90;;;;;;5014180;28;20438;-50
2021/12/15 01:20:56;;;;;;;40.92;18.75;;;8.70;99.90;;;;;;5013965;28;20033;-46
2021/12/15 01:23:27;;;;;;;36.25;18.27;;;8.70;99.90;;;;;;5013364;28;20018;-45
2021/12/15 01:25:58;;;;;;;46.35;20.27;;;8.70;99.90;;;;;;5013971;28;20029;-46
2021/12/15 01:28:24;;;;;;;47.63;20.15;;;8.70;99.90;;;;;;5013340;28;20154;-46
2021/12/15 01:30:50;;;;;;;37.63;18.55;;;8.70;99.90;;;;;;5013013;28;20026;-47
2021/12/15 01:33:16;;;;;;;49.78;20.00;;;8.80;99.90;;;;;;5012154;28;20060;-47
2021/12/15 01:35:46;;;;;;;47.30;19.85;;;8.80;99.90;;;;;;5013428;28;20469;-44
2021/12/15 01:38:12;;;;;;;46.78;20.95;;;8.80;99.90;;;;;;4995952;28;20026;-46
2021/12/15 01:40:40;;;;;;;45.47;18.33;;;8.80;99.90;;;;;;5013391;28;20108;-51
2021/12/15 01:43:17;;;;;;;49.15;21.40;;;8.80;99.90;;;;;;5012991;28;20026;-47
2021/12/15 01:48:31;;;;;;;43.95;19.08;;;8.70;99.90;;;;;;5011770;28;20024;-48
2021/12/15 01:50:57;;;;;;;39.88;19.23;;;8.70;99.90;;;;;;5013310;28;20497;-51
2021/12/15 01:53:23;;;;;;;39.15;19.63;;;8.70;99.90;;;;;;5013033;28;20061;-46
2021/12/15 01:55:49;;;;;;;44.33;20.38;;;8.70;99.90;;;;;;5013030;28;20547;-44
2021/12/15 01:58:15;;;;;;;45.00;21.30;;;8.60;99.90;;;;;;5012991;28;20030;-51
2021/12/15 02:00:43;;;;;;;40.70;19.00;;;8.60;99.90;;;;;;5012765;28;20030;-48
2021/12/15 02:03:09;;;;;;;48.42;21.77;;;8.60;99.90;;;;;;5011670;28;20785;-47
2021/12/15 02:05:35;;;;;;;44.80;20.50;;;8.60;99.90;;;;;;5012992;28;20133;-46
2021/12/15 02:08:02;;;;;;;45.03;18.45;;;8.60;99.90;;;;;;5013009;28;20450;-49
2021/12/15 02:10:31;;;;;;;39.72;18.02;;;8.60;99.90;;;;;;5012941;28;20034;-48
2021/12/15 02:12:59;;;;;;;34.67;16.67;;;8.70;99.90;;;;;;5012844;28;20036;-49
2021/12/15 02:15:30;;;;;;;45.05;19.20;;;8.60;99.90;;;;;;5012668;28;20034;-50
2021/12/15 02:17:58;;;;;;;38.50;18.90;;;8.70;99.90;;;;;;5011640;28;20053;-49
2021/12/15 02:20:31;;;;;;;38.63;18.00;;;8.60;99.90;;;;;;5012717;28;20037;-49
2021/12/15 02:22:57;;;;;;;41.10;17.33;;;8.70;99.90;;;;;;5012754;28;20145;-45
2021/12/15 02:25:22;;;;;;;40.17;19.05;;;8.70;99.90;;;;;;5012525;28;20058;-46
2021/12/15 02:27:48;;;;;;;41.03;19.20;;;8.60;99.90;;;;;;5012432;28;20034;-47
2021/12/15 02:38:28;;;;;;;41.30;17.63;;;8.60;99.90;;;;;;5012597;28;20037;-48
2021/12/15 02:40:54;;;;;;;39.33;18.60;;;8.70;99.90;;;;;;5012323;28;20068;-45
2021/12/15 02:43:21;;;;;;;40.25;18.40;;;8.60;99.90;;;;;;5012222;28;20458;-47
2021/12/15 02:45:46;;;;;;;42.65;18.85;;;8.60;99.90;;;;;;5012217;28;20022;-49
2021/12/15 02:48:12;;;;;;;45.20;18.55;;;8.60;99.90;;;;;;5011312;28;20037;-46
2021/12/15 02:50:37;;;;;;;39.85;18.13;;;8.60;99.90;;;;;;5011980;28;20046;-50
2021/12/15 02:53:04;;;;;;;40.05;18.50;;;8.60;99.90;;;;;;5011438;28;20034;-47
2021/12/15 02:55:30;;;;;;;45.92;20.05;;;8.60;99.90;;;;;;5012094;28;20092;-48
2021/12/15 02:57:56;;;;;;;35.95;17.75;;;8.60;99.90;;;;;;5012184;28;20030;-46
2021/12/15 03:00:26;;;;;;;39.42;17.83;;;8.60;99.90;;;;;;5011793;28;20042;-49
2021/12/15 03:05:49;;;;;;;37.20;17.13;;;8.60;99.90;;;;;;5011665;28;20080;-46
2021/12/15 03:08:20;;;;;;;35.15;17.05;;;8.60;99.90;;;;;;5012438;28;20018;-49
2021/12/15 03:16:25;;;;;;;42.80;17.92;;;8.60;99.90;;;;;;5013644;28;20068;-48
2021/12/15 03:18:51;;;;;;;43.35;18.73;;;8.60;99.90;;;;;;5012066;28;20034;-48
2021/12/15 03:21:25;;;;;;;42.28;18.15;;;8.60;99.90;;;;;;5013443;28;20061;-47
2021/12/15 03:24:00;;;;;;;41.72;17.80;;;8.60;99.90;;;;;;5013177;28;20068;-48
2021/12/15 03:26:34;;;;;;;40.95;17.33;;;8.60;99.90;;;;;;5013286;28;20417;-44
2021/12/15 03:39:30;;;;;;;39.80;18.63;;;8.60;99.90;;;;;;5013220;28;20075;-46
2021/12/15 03:42:01;;;;;;;38.83;18.08;;;8.60;99.90;;;;;;5012973;28;20042;-47
2021/12/15 03:44:31;;;;;;;36.72;16.98;;;8.60;99.90;;;;;;5012901;28;20022;-47
2021/12/15 03:46:58;;;;;;;35.30;17.27;;;8.60;99.90;;;;;;4995480;28;20084;-49
2021/12/15 03:49:23;;;;;;;35.90;17.65;;;8.60;99.90;;;;;;5011431;28;20044;-49
2021/12/15 03:51:49;;;;;;;37.25;17.50;;;8.50;99.90;;;;;;5012947;28;20034;-47
2021/12/15 03:54:17;;;;;;;34.42;16.48;;;8.60;99.90;;;;;;5012870;28;20112;-45
2021/12/15 03:56:43;;;;;;;34.65;16.75;;;8.50;99.90;;;;;;5021446;28;20032;-50
2021/12/15 03:59:10;;;;;;;33.80;15.43;;;8.60;99.90;;;;;;5032606;28;20071;-47
2021/12/15 04:01:36;;;;;;;41.85;16.88;;;8.50;99.90;;;;;;5032398;28;20079;-48
2021/12/15 04:04:02;;;;;;;36.50;16.65;;;8.50;99.90;;;;;;5014922;28;20030;-49
2021/12/15 04:06:31;;;;;;;37.63;16.77;;;8.50;99.90;;;;;;5012478;28;20465;-49
2021/12/15 04:08:57;;;;;;;40.38;17.42;;;8.50;99.90;;;;;;5012827;28;20352;-52
2021/12/15 04:11:26;;;;;;;42.15;18.65;;;8.50;99.90;;;;;;4995180;28;20025;-47
2021/12/15 04:13:58;;;;;;;37.33;17.63;;;8.50;99.90;;;;;;5012625;28;20026;-47
2021/12/15 04:16:43;;;;;;;38.97;16.95;;;8.50;99.90;;;;;;5012619;28;20029;-47
2021/12/15 04:19:15;;;;;;;38.58;16.98;;;8.60;99.90;;;;;;5011624;28;20022;-49
2021/12/15 04:21:42;;;;;;;41.13;17.63;;;8.60;99.90;;;;;;5012516;28;20466;-50
2021/12/15 04:24:12;;;;;;;38.97;17.02;;;8.50;99.90;;;;;;5012693;28;20377;-51
2021/12/15 04:26:38;;;;;;;40.45;17.15;;;8.60;99.90;;;;;;5012582;28;20390;-48
2021/12/15 04:29:05;;;;;;;33.45;14.80;;;8.60;99.90;;;;;;5012474;28;20026;-46
2021/12/15 04:31:33;;;;;;;40.83;18.15;;;8.50;99.90;;;;;;5012461;28;20038;-48
2021/12/15 04:34:04;;;;;;;41.70;17.38;;;8.60;99.90;;;;;;5011228;28;20388;-51
2021/12/15 04:36:39;;;;;;;38.15;16.15;;;8.50;99.90;;;;;;5012567;28;20053;-48
2021/12/15 04:39:07;;;;;;;37.00;17.38;;;8.60;99.90;;;;;;4994853;28;20034;-47
2021/12/15 04:41:33;;;;;;;32.80;16.25;;;8.50;99.90;;;;;;5012286;28;20034;-50
2021/12/15 04:44:01;;;;;;;39.05;16.55;;;8.50;99.90;;;;;;5012362;28;20022;-44
2021/12/15 04:46:33;;;;;;;37.15;16.75;;;8.50;99.90;;;;;;5012297;28;20022;-52
2021/12/15 04:49:00;;;;;;;38.95;17.20;;;8.50;99.90;;;;;;5011026;28;20033;-52
2021/12/15 04:51:26;;;;;;;38.80;17.30;;;8.50;99.90;;;;;;5012266;28;20069;-46
2021/12/15 04:53:52;;;;;;;33.65;15.45;;;8.50;99.90;;;;;;5012247;28;20077;-46
2021/12/15 04:56:19;;;;;;;36.78;16.42;;;8.50;99.90;;;;;;5010587;28;20022;-47
2021/12/15 04:58:47;;;;;;;36.30;16.48;;;8.50;99.90;;;;;;5011979;28;20022;-50
2021/12/15 05:01:13;;;;;;;40.30;16.98;;;8.50;99.90;;;;;;5011862;28;20030;-46
2021/12/15 05:03:39;;;;;;;39.65;16.80;;;8.60;99.90;;;;;;5010907;28;20030;-50
2021/12/15 05:06:06;;;;;;;40.35;18.00;;;8.50;99.90;;;;;;5011829;28;20529;-52
2021/12/15 05:08:32;;;;;;;37.25;16.35;;;8.50;99.90;;;;;;5012089;28;20033;-46
2021/12/15 05:10:59;;;;;;;36.75;16.25;;;8.50;99.90;;;;;;5011852;28;20018;-47
2021/12/15 05:13:27;;;;;;;35.05;16.42;;;8.50;99.90;;;;;;4994420;28;20033;-48
2021/12/15 05:15:53;;;;;;;32.90;14.63;;;8.50;99.90;;;;;;5012510;28;20497;-45
2021/12/15 05:18:18;;;;;;;34.95;16.83;;;8.50;99.90;;;;;;5014582;28;20096;-50
2021/12/15 05:20:48;;;;;;;34.88;15.82;;;8.50;99.90;;;;;;5015565;28;20069;-47
2021/12/15 05:23:16;;;;;;;36.30;16.73;;;8.50;99.90;;;;;;5015375;28;20113;-46
2021/12/15 05:25:41;;;;;;;33.90;15.48;;;8.50;99.90;;;;;;5015746;28;20029;-47
2021/12/15 05:28:08;;;;;;;33.65;16.02;;;8.50;99.90;;;;;;5015559;28;20029;-48
2021/12/15 05:30:34;;;;;;;27.67;14.38;;;8.50;99.90;;;;;;5015495;28;20469;-47
2021/12/15 05:32:59;;;;;;;32.55;15.25;;;8.50;99.90;;;;;;5014026;28;20429;-49
2021/12/15 05:35:25;;;;;;;30.25;15.02;;;8.50;99.90;;;;;;5015422;28;20026;-50
2021/12/15 05:37:57;;;;;;;32.70;15.52;;;8.50;99.90;;;;;;5015206;28;20022;-47
2021/12/15 05:40:25;;;;;;;33.42;16.10;;;8.40;99.90;;;;;;4997676;28;20038;-49
2021/12/15 05:42:51;;;;;;;32.15;15.88;;;8.40;99.90;;;;;;5015144;28;20030;-47
2021/12/15 05:45:17;;;;;;;32.90;15.15;;;8.50;99.90;;;;;;5015195;28;20053;-49
2021/12/15 05:47:42;;;;;;;33.25;15.75;;;8.40;99.90;;;;;;5015163;28;20055;-49
2021/12/15 05:50:12;;;;;;;28.83;14.25;;;8.40;99.90;;;;;;5013478;28;20084;-46
2021/12/15 05:52:37;;;;;;;31.48;15.55;;;8.40;99.90;;;;;;5014993;28;20511;-48
2021/12/15 05:55:06;;;;;;;29.67;13.77;;;8.50;99.90;;;;;;5011452;28;20038;-47
2021/12/15 05:57:32;;;;;;;35.25;15.50;;;8.50;99.90;;;;;;5029996;28;20030;-48
2021/12/15 05:59:58;;;;;;;30.70;15.52;;;8.50;99.90;;;;;;5016714;28;20026;-47
2021/12/15 06:02:24;;;;;;;27.05;13.30;;;8.50;99.90;;;;;;5032479;28;20416;-46
2021/12/15 06:04:50;;;;;;;31.38;14.65;;;8.50;99.90;;;;;;5013212;28;20033;-48
2021/12/15 06:07:15;;;;;;;30.35;14.02;;;8.50;99.90;;;;;;5014458;28;20041;-51
2021/12/15 06:09:41;;;;;;;32.72;14.35;;;8.40;99.90;;;;;;4997069;28;20061;-46
2021/12/15 06:12:07;;;;;;;30.98;14.45;;;8.50;99.90;;;;;;5014445;28;20496;-47
2021/12/15 06:14:34;;;;;;;29.80;14.00;;;8.50;99.90;;;;;;5014587;28;20036;-44
2021/12/15 06:17:10;;;;;;;25.77;13.40;;;8.40;99.90;;;;;;4996635;28;20022;-48
2021/12/15 06:19:35;;;;;;;28.00;14.25;;;8.50;99.90;;;;;;5012805;28;20117;-48
2021/12/15 06:22:02;;;;;;;27.00;12.90;;;8.50;99.90;;;;;;5014250;28;20470;-49
2021/12/15 06:24:29;;;;;;;27.70;13.07;;;8.50;99.90;;;;;;5014576;28;20029;-49
2021/12/15 06:26:57;;;;;;;32.95;15.45;;;8.50;99.90;;;;;;5014169;28;20096;-50
2021/12/15 06:29:23;;;;;;;34.28;15.68;;;8.50;99.90;;;;;;5013953;28;20029;-46
2021/12/15 06:31:49;;;;;;;29.92;14.15;;;8.50;99.90;;;;;;5014357;28;20026;-47
2021/12/15 06:34:15;;;;;;;29.38;14.05;;;8.50;99.90;;;;;;5001588;28;20046;-49
2021/12/15 06:36:42;;;;;;;32.17;15.70;;;8.50;99.90;;;;;;5006859;28;20381;-51
2021/12/15 06:39:09;;;;;;;29.10;14.35;;;8.50;99.90;;;;;;5012573;28;20117;-51
2021/12/15 06:41:34;;;;;;;29.33;15.43;;;8.50;99.90;;;;;;5006141;28;20034;-46
2021/12/15 06:44:01;;;;;;;31.42;14.77;;;8.50;99.90;;;;;;5012272;28;20034;-50
2021/12/15 06:59:52;;;;;;;33.80;15.60;;;8.60;99.90;;;;;;5012131;28;20044;-46
2021/12/15 07:02:18;;;;;;;32.10;14.73;;;8.60;99.90;;;;;;5013465;28;20112;-46
2021/12/15 07:04:43;;;;;;;27.23;13.38;;;8.60;99.90;;;;;;5012467;28;20034;-45
2021/12/15 07:07:09;;;;;;;28.75;14.60;;;8.60;99.90;;;;;;5013556;28;20034;-49
2021/12/15 07:09:35;;;;;;;32.03;14.02;;;8.60;99.90;;;;;;5011336;28;20080;-50
2021/12/15 07:12:02;;;;;;;25.85;12.98;;;8.60;99.90;;;;;;5011706;28;20041;-49
2021/12/15 07:14:28;;;;;;;32.60;15.25;;;8.60;99.90;;;;;;5013263;28;20042;-51
2021/12/15 07:16:55;;;;;;;31.70;14.55;;;8.70;99.90;;;;;;5012271;28;20030;-48
2021/12/15 07:22:07;;;;;;;31.65;14.05;;;8.70;99.90;;;;;;5013096;28;20033;-47
2021/12/15 07:24:35;;;;;;;28.42;14.60;;;8.70;99.90;;;;;;5013080;28;20026;-51
2021/12/15 07:27:02;;;;;;;33.95;15.38;;;8.70;99.90;;;;;;5013088;28;20040;-51
2021/12/15 07:29:29;;;;;;;27.98;13.90;;;8.70;99.90;;;;;;5012983;28;20113;-46
2021/12/15 07:31:56;;;;;;;29.98;14.35;;;8.70;99.90;;;;;;5012638;28;20037;-45
2021/12/15 07:34:21;;;;;;;27.38;14.35;;;8.70;99.90;;;;;;5011482;28;20489;-46
2021/12/15 07:36:47;;;;;;;24.73;13.32;;;8.70;99.90;;;;;;5012337;28;20034;-46
2021/12/15 07:39:15;;;;;;;25.88;12.75;;;8.70;99.90;;;;;;5012701;28;20034;-44
2021/12/15 07:41:49;;;;;;;30.58;13.10;;;8.70;99.90;;;;;;5012654;28;20053;-46
2021/12/15 07:44:15;;;;;;;31.40;13.82;;;8.70;99.90;;;;;;5012569;28;20084;-48
2021/12/15 07:46:43;;;;;;;30.98;14.52;;;8.70;99.90;;;;;;5012595;28;20389;-49
2021/12/15 07:49:09;;;;;;;25.27;12.13;;;8.70;99.90;;;;;;5011007;28;20037;-45
2021/12/15 07:51:34;;;;;;;25.02;12.80;;;8.70;99.90;;;;;;4994642;28;20029;-45
2021/12/15 07:54:00;;;;;;;29.27;13.18;;;8.70;99.90;;;;;;5012515;28;20037;-45
2021/12/15 07:56:25;;;;;;;27.10;14.55;;;8.80;99.90;;;;;;5018643;28;20029;-46
2021/12/15 07:58:51;;;;;;;27.25;13.23;;;8.70;99.90;;;;;;5032289;28;20511;-45
2021/12/15 08:01:18;;;;;;;28.98;13.20;;;8.70;99.90;;;;;;5031967;28;20107;-45
2021/12/15 08:03:44;;;;;;;27.13;14.23;;;8.80;99.90;;;;;;5017864;28;20034;-51
2021/12/15 08:06:11;;;;;;;34.83;15.23;;;8.70;99.90;;;;;;5011860;28;20057;-46
2021/12/15 08:08:36;;;;;;;22.80;11.18;;;8.70;99.90;;;;;;5012349;28;20030;-45
2021/12/15 08:11:02;;;;;;;26.17;13.32;;;8.70;99.90;;;;;;5012463;28;20458;-48
2021/12/15 08:13:31;;;;;;;23.58;11.75;;;8.80;99.90;;;;;;5012194;28;20473;-44
2021/12/15 08:15:57;;;;;;;25.25;11.90;;;8.80;99.90;;;;;;5012518;28;20032;-50
2021/12/15 08:18:23;;;;;;;25.60;12.68;;;8.80;99.90;;;;;;5010769;28;20448;-47
2021/12/15 08:20:50;;;;;;;31.70;14.07;;;8.80;99.90;;;;;;5012073;28;20026;-50
2021/12/15 08:23:17;;;;;;;24.13;12.57;;;8.80;99.90;;;;;;5011952;28;20018;-44
2021/12/15 08:25:42;;;;;;;31.73;13.38;;;8.90;99.90;;;;;;5012327;28;20030;-45
2021/12/15 08:28:09;;;;;;;27.10;11.95;;;8.90;99.90;;;;;;4994469;28;20029;-46
2021/12/15 08:30:35;;;;;;;22.17;11.35;;;8.90;99.90;;;;;;5012162;28;20037;-47
2021/12/15 08:33:05;;;;;;;22.65;11.27;;;8.90;99.90;;;;;;5010605;28;20512;-47
2021/12/15 08:35:36;;;;;;;22.20;12.40;;;9.00;99.90;;;;;;5012285;28;20028;-49
2021/12/15 08:38:04;;;;;;;21.00;10.90;;;9.00;99.90;;;;;;5011987;28;20488;-47
2021/12/15 08:40:30;;;;;;;21.25;10.90;;;9.10;99.90;;;;;;5012142;28;20130;-48
2021/12/15 08:42:57;;;;;;;22.48;12.50;;;9.10;99.90;;;;;;5011814;28;20105;-46
2021/12/15 08:45:24;;;;;;;28.67;13.43;;;9.10;99.90;;;;;;5012023;28;20033;-47
2021/12/15 08:47:51;;;;;;;22.20;11.75;;;9.10;99.90;;;;;;5010479;28;20026;-46
2021/12/15 08:50:20;;;;;;;23.52;12.82;;;9.20;99.90;;;;;;5011875;28;20044;-50
2021/12/15 08:52:46;;;;;;;24.60;11.75;;;9.30;99.90;;;;;;5015532;28;20116;-54
2021/12/15 08:55:11;;;;;;;23.05;11.85;;;9.30;99.90;;;;;;5015586;28;20065;-45
2021/12/15 08:57:38;;;;;;;18.33;10.52;;;9.40;99.90;;;;;;5031720;28;20029;-49
2021/12/15 09:00:08;;;;;;;20.90;12.13;;;9.40;99.90;;;;;;5035337;28;20025;-44
2021/12/15 09:02:36;;;;;;;25.25;11.57;;;9.40;99.90;;;;;;5031748;28;20097;-47
2021/12/15 09:05:02;;;;;;;23.60;11.38;;;9.40;99.90;;;;;;5014546;28;20373;-46
2021/12/15 09:07:28;;;;;;;22.75;11.40;;;9.50;99.90;;;;;;5015221;28;20025;-47
2021/12/15 09:09:53;;;;;;;19.35;10.73;;;9.40;99.90;;;;;;5015537;28;20362;-51
2021/12/15 09:12:19;;;;;;;19.48;10.57;;;9.40;99.90;;;;;;5010559;28;20087;-47
2021/12/15 09:14:46;;;;;;;21.45;11.52;;;9.50;99.90;;;;;;5015158;28;20029;-47
2021/12/15 09:17:12;;;;;;;22.65;11.65;;;9.50;99.90;;;;;;5015442;28;20022;-44
2021/12/15 09:19:37;;;;;;;23.08;11.90;;;9.50;99.90;;;;;;5014144;28;20102;-48
2021/12/15 09:22:04;;;;;;;18.73;10.23;;;9.50;99.90;;;;;;5014892;28;20034;-48
2021/12/15 09:24:29;;;;;;;22.48;11.50;;;9.50;99.90;;;;;;5015155;28;20033;-46
2021/12/15 09:26:55;;;;;;;20.75;11.00;;;9.50;99.90;;;;;;5015056;28;20025;-47
2021/12/15 09:29:21;;;;;;;20.75;11.98;;;9.60;99.90;;;;;;5014996;28;20032;-49
2021/12/15 09:31:47;;;;;;;18.88;10.45;;;9.60;99.90;;;;;;5011986;28;20033;-47
2021/12/15 09:34:17;;;;;;;22.55;11.02;;;9.60;99.90;;;;;;5013626;28;20108;-49
2021/12/15 09:36:45;;;;;;;24.55;12.68;;;9.60;99.90;;;;;;5015117;28;20090;-44
2021/12/15 09:39:14;;;;;;;20.48;11.43;;;9.60;99.90;;;;;;5014814;28;20473;-47
2021/12/15 09:41:40;;;;;;;18.27;10.65;;;9.60;99.90;;;;;;5015000;28;20030;-46
2021/12/15 09:44:10;;;;;;;20.25;11.25;;;9.70;99.90;;;;;;5014473;28;20069;-49
2021/12/15 10:03:07;;;;;;;18.33;10.60;;;9.70;99.90;;;;;;5024498;28;20036;-49
2021/12/15 10:05:49;;;;;;;19.13;10.70;;;9.70;99.90;;;;;;5014472;28;20264;-47
2021/12/15 10:11:17;;;;;;;20.85;11.48;;;9.70;99.90;;;;;;5014607;28;20440;-50
2021/12/15 10:19:31;;;;;;;19.55;9.48;;;9.70;99.90;;;;;;5012587;28;20547;-49
2021/12/15 10:22:27;;;;;;;19.20;10.15;;;9.70;99.90;;;;;;5014264;28;20037;-47
2021/12/15 10:25:05;;;;;;;23.17;10.63;;;9.80;99.90;;;;;;5014042;28;20018;-52
2021/12/15 10:27:36;;;;;;;22.75;11.25;;;9.80;99.90;;;;;;5013845;28;20315;-47
2021/12/15 10:30:16;;;;;;;18.75;11.43;;;9.80;99.90;;;;;;5013810;28;20034;-47
2021/12/15 10:32:44;;;;;;;19.00;10.63;;;9.80;99.90;;;;;;5012830;28;20025;-45
2021/12/15 10:35:26;;;;;;;19.85;11.25;;;9.80;99.90;;;;;;5014018;28;20026;-48
2021/12/15 10:38:12;;;;;;;25.65;10.70;;;9.90;99.90;;;;;;5013855;28;20540;-45
2021/12/15 10:40:43;;;;;;;18.85;10.13;;;9.90;99.90;;;;;;5013534;28;20026;-49
2021/12/15 10:43:09;;;;;;;22.08;11.43;;;9.90;99.90;;;;;;5013789;28;20034;-49
2021/12/15 10:45:40;;;;;;;22.45;12.05;;;9.90;99.90;;;;;;5013632;28;20128;-44
2021/12/15 10:48:20;;;;;;;19.83;10.55;;;9.90;99.90;;;;;;5012592;28;20170;-47
2021/12/15 10:50:47;;;;;;;20.27;11.27;;;9.90;99.90;;;;;;5013222;28;20050;-50
2021/12/15 10:53:12;;;;;;;19.10;10.20;;;9.90;99.90;;;;;;5013532;28;20033;-48
2021/12/15 10:55:39;;;;;;;20.77;10.82;;;9.90;99.90;;;;;;5013412;28;20034;-51
2021/12/15 10:58:31;;;;;;;24.77;11.65;;;9.90;99.90;;;;;;4993867;28;20248;-48
2021/12/15 11:00:56;;;;;;;18.05;9.95;;;9.90;99.90;;;;;;4993935;28;20474;-45
2021/12/15 11:03:35;;;;;;;17.95;10.35;;;9.90;99.90;;;;;;5001905;28;20029;-45
2021/12/15 11:06:17;;;;;;;17.83;10.13;;;9.90;99.90;;;;;;5013540;28;20438;-49
2021/12/15 11:08:43;;;;;;;21.15;11.73;;;9.90;99.90;;;;;;5013029;28;20470;-50
2021/12/15 11:11:21;;;;;;;17.67;10.48;;;9.90;99.90;;;;;;5013329;28;20072;-50
2021/12/15 11:13:47;;;;;;;17.48;9.80;;;9.90;99.90;;;;;;5012362;28;20528;-46
2021/12/15 11:16:13;;;;;;;18.90;10.07;;;9.90;99.90;;;;;;5013428;28;20038;-45
2021/12/15 11:18:39;;;;;;;22.52;11.15;;;9.90;99.90;;;;;;4994042;28;20079;-48
2021/12/15 11:21:08;;;;;;;20.13;10.82;;;9.90;99.90;;;;;;5013253;28;20536;-48
2021/12/15 11:23:35;;;;;;;23.08;11.95;;;9.90;99.90;;;;;;5013062;28;20398;-51
2021/12/15 11:26:07;;;;;;;20.45;10.65;;;9.90;99.90;;;;;;5013058;28;20026;-48
2021/12/15 11:28:42;;;;;;;24.35;12.15;;;10.00;99.90;;;;;;5012715;28;20073;-51
2021/12/15 11:31:18;;;;;;;22.10;12.27;;;10.00;99.90;;;;;;4995362;28;20481;-48
2021/12/15 11:33:48;;;;;;;;;;;9.90;99.90;;;;;;5012086;28;20034;-46
2021/12/15 11:36:22;;;;;;;20.75;10.68;;;10.00;99.90;;;;;;5012990;28;19920;-45
2021/12/15 11:38:55;;;;;;;20.48;11.57;;;10.00;99.90;;;;;;5012582;28;20026;-48
2021/12/15 11:41:24;;;;;;;19.80;10.77;;;10.00;99.90;;;;;;5012643;28;20100;-45
2021/12/15 11:44:00;;;;;;;21.05;11.75;;;10.00;99.90;;;;;;5012700;28;20418;-44
2021/12/15 11:46:29;;;;;;;21.17;11.55;;;10.00;99.90;;;;;;5012801;28;20018;-45
2021/12/15 11:49:02;;;;;;;23.30;11.82;;;10.00;99.90;;;;;;5010893;28;20021;-50
2021/12/15 11:51:40;;;;;;;20.88;11.45;;;10.00;99.90;;;;;;4994856;28;20467;-46
2021/12/15 11:54:21;;;;;;;18.13;10.23;;;10.10;99.90;;;;;;4994790;28;20083;-50
2021/12/15 11:56:50;;;;;;;22.95;10.90;;;10.10;99.90;;;;;;5012640;28;20109;-46
2021/12/15 11:59:19;;;;;;;19.00;10.48;;;10.00;99.90;;;;;;5012347;28;20152;-45
2021/12/15 12:02:02;;;;;;;22.83;11.85;;;10.10;99.90;;;;;;5012112;28;20505;-48
2021/12/15 12:04:36;;;;;;;22.10;12.20;;;10.10;99.90;;;;;;5010928;28;20108;-44
2021/12/15 12:07:16;;;;;;;20.23;11.57;;;10.10;99.90;;;;;;5012551;28;20034;-46
2021/12/15 12:09:45;;;;;;;20.35;11.43;;;10.10;99.90;;;;;;5012205;28;20377;-47
2021/12/15 12:12:12;;;;;;;19.30;10.68;;;10.10;99.90;;;;;;5007528;28;20087;-51
2021/12/15 12:14:48;;;;;;;18.08;10.93;;;10.10;99.90;;;;;;5012090;28;20034;-46
2021/12/15 12:17:17;;;;;;;15.75;9.15;;;10.20;99.90;;;;;;5012488;28;20616;-50
2021/12/15 12:19:59;;;;;;;19.20;11.13;;;10.20;99.90;;;;;;5010844;28;20037;-47
2021/12/15 12:22:27;;;;;;;16.90;9.32;;;10.20;99.90;;;;;;5012256;28;20172;-50
2021/12/15 12:24:56;;;;;;;17.90;10.23;;;10.20;99.90;;;;;;5011985;28;20030;-50
2021/12/15 12:27:28;;;;;;;18.08;9.93;;;10.30;99.90;;;;;;5015369;28;20094;-45
2021/12/15 12:29:55;;;;;;;14.02;9.00;;;10.30;99.90;;;;;;5016225;28;20072;-46
2021/12/15 12:32:22;;;;;;;17.10;10.07;;;10.40;99.90;;;;;;5016342;28;20171;-48
2021/12/15 12:34:49;;;;;;;15.80;9.77;;;10.40;99.90;;;;;;5015205;28;20034;-44
2021/12/15 12:37:16;;;;;;;14.95;8.98;;;10.40;99.90;;;;;;5016213;28;20158;-54
2021/12/15 12:39:44;;;;;;;18.17;10.57;;;10.50;99.90;;;;;;5016074;28;20478;-45
2021/12/15 12:42:10;;;;;;;16.58;9.85;;;10.50;99.90;;;;;;4998457;28;20041;-49
2021/12/15 12:44:40;;;;;;;17.27;9.43;;;10.50;99.90;;;;;;5015849;28;20022;-46
2021/12/15 12:47:21;;;;;;;16.48;9.05;;;10.60;99.90;;;;;;5016194;28;20036;-47
2021/12/15 13:01:16;;;;;;;16.10;8.65;;;10.60;99.90;;;;;;4996419;28;20030;-45
2021/12/15 13:03:54;;;;;;;15.55;9.23;;;10.60;99.90;;;;;;5007055;28;20053;-46
2021/12/15 13:06:23;;;;;;;13.98;8.98;;;10.60;99.90;;;;;;5015541;28;20037;-49
2021/12/15 13:09:00;;;;;;;14.57;7.72;;;10.60;99.90;;;;;;5015301;28;20029;-47
2021/12/15 13:11:38;;;;;;;13.90;8.10;;;10.60;99.90;;;;;;5015684;28;20018;-48
2021/12/15 13:14:12;;;;;;;13.98;8.45;;;10.60;99.90;;;;;;5015217;28;20636;-46
2021/12/15 13:16:48;;;;;;;14.40;9.00;;;10.50;99.90;;;;;;5011951;28;20029;-46
2021/12/15 13:19:34;;;;;;;16.98;9.73;;;10.50;99.90;;;;;;5014147;28;20523;-45
2021/12/15 13:30:59;;;;;;;13.63;7.78;;;10.50;99.90;;;;;;5015334;28;20068;-46
2021/12/15 13:33:28;;;;;;;13.00;8.57;;;10.50;99.90;;;;;;5013835;28;20053;-50
2021/12/15 13:35:56;;;;;;;14.68;8.48;;;10.50;99.90;;;;;;5015071;28;20121;-49
2021/12/15 13:38:32;;;;;;;12.18;7.35;;;10.50;99.90;;;;;;5014885;28;20037;-46
2021/12/15 13:41:20;;;;;;;13.52;7.72;;;10.50;99.90;;;;;;5014865;28;20381;-44
2021/12/15 13:43:48;;;;;;;12.40;8.13;;;10.40;99.90;;;;;;5014464;28;20026;-49
2021/12/15 13:46:46;;;;;;;14.98;8.57;;;10.40;99.90;;;;;;5014866;28;20026;-44
2021/12/15 13:49:26;;;;;;;13.35;8.10;;;10.40;99.90;;;;;;4993982;28;20048;-48
2021/12/15 13:52:04;;;;;;;12.27;7.45;;;10.40;99.90;;;;;;5014456;28;20030;-45
2021/12/15 13:54:32;;;;;;;14.68;8.50;;;10.40;99.90;;;;;;5014741;28;20107;-45
2021/12/15 13:57:02;;;;;;;14.70;8.73;;;10.40;99.90;;;;;;5014536;28;20504;-46
2021/12/15 13:59:33;;;;;;;14.18;8.52;;;10.40;99.90;;;;;;5014626;28;20030;-47
2021/12/15 14:02:23;;;;;;;12.35;8.38;;;10.40;99.90;;;;;;5014497;28;20059;-46
2021/12/15 14:05:03;;;;;;;12.00;7.68;;;10.40;99.90;;;;;;4993087;28;20053;-44
2021/12/15 14:07:28;;;;;;;13.30;7.45;;;10.40;99.90;;;;;;4995085;28;20022;-44
2021/12/15 14:10:14;;;;;;;10.05;7.05;;;10.40;99.90;;;;;;4994554;28;20552;-47
2021/12/15 14:12:45;;;;;;;13.55;7.97;;;10.40;99.90;;;;;;4980925;28;20036;-45
2021/12/15 14:15:15;;;;;;;12.20;7.47;;;10.40;99.90;;;;;;4994351;28;20072;-48
2021/12/15 14:17:41;;;;;;;11.70;6.70;;;10.40;99.90;;;;;;4993559;28;20516;-47
2021/12/15 14:20:14;;;;;;;10.65;7.32;;;10.40;99.90;;;;;;5005633;28;20618;-49
2021/12/15 14:22:41;;;;;;;10.15;6.90;;;10.30;99.90;;;;;;4996467;28;20076;-46
2021/12/15 14:25:07;;;;;;;12.43;7.85;;;10.30;99.90;;;;;;5014010;28;20050;-47